Time;durP1;ratioP1;P1;durP2;ratioP2;P2;SDS_P1;SDS_P2;PMS_P1;PMS_P2;Temp;Humidity;BMP_temperature;BMP_pressure;BME280_temperature;BME280_humidity;BME280_pressure;Samples;Min_cycle;Max_cycle;Signal;HPM_P1;HPM_P2
2023/05/05 00:01:18;;;;;;;6.65;3.78;;;;;;;;;;5020849;28;20487;-70
2023/05/05 00:03:43;;;;;;;5.75;3.58;;;;;;;;;;5020028;28;20038;-69
2023/05/05 00:06:09;;;;;;;4.05;3.45;;;;;;;;;;5019707;28;20057;-70
2023/05/05 00:08:34;;;;;;;7.13;3.85;;;;;;;;;;5020701;28;20057;-72
2023/05/05 00:11:00;;;;;;;6.82;3.42;;;;;;;;;;5015975;28;20153;-69
2023/05/05 00:13:25;;;;;;;7.93;3.95;;;;;;;;;;5020218;28;20049;-71
2023/05/05 00:15:52;;;;;;;4.90;3.63;;;;;;;;;;5019839;28;20076;-71
2023/05/05 00:18:18;;;;;;;6.03;3.67;;;;;;;;;;5019390;28;20521;-69
2023/05/05 00:20:45;;;;;;;8.35;3.83;;;;;;;;;;5020683;28;20037;-69
2023/05/05 00:23:11;;;;;;;10.15;3.55;;;;;;;;;;5020396;28;20052;-71
2023/05/05 00:25:36;;;;;;;6.57;3.38;;;;;;;;;;5019699;28;20045;-69
2023/05/05 00:28:01;;;;;;;7.00;3.38;;;;;;;;;;5019602;28;20041;-71
2023/05/05 00:30:27;;;;;;;7.18;4.00;;;;;;;;;;5035393;28;20404;-71
2023/05/05 00:32:53;;;;;;;6.20;3.70;;;;;;;;;;5020584;28;20049;-70
2023/05/05 00:35:19;;;;;;;3.65;3.30;;;;;;;;;;5016273;28;20092;-69
2023/05/05 00:37:45;;;;;;;5.85;3.38;;;;;;;;;;5020105;28;20068;-71
2023/05/05 00:40:11;;;;;;;3.70;3.03;;;;;;;;;;5019382;28;20044;-69
2023/05/05 00:42:42;;;;;;;7.07;3.53;;;;;;;;;;5014033;28;20472;-72
2023/05/05 00:45:09;;;;;;;4.53;3.38;;;;;;;;;;5030932;28;20084;-70
2023/05/05 00:47:35;;;;;;;5.50;3.35;;;;;;;;;;5035009;28;20136;-71
2023/05/05 00:50:03;;;;;;;8.25;4.00;;;;;;;;;;5019447;28;20127;-73
2023/05/05 00:52:29;;;;;;;6.10;3.60;;;;;;;;;;5035086;28;20107;-68
2023/05/05 00:54:55;;;;;;;5.55;3.85;;;;;;;;;;5019998;28;20045;-69
2023/05/05 00:57:20;;;;;;;4.80;3.72;;;;;;;;;;5019796;28;20111;-70
2023/05/05 00:59:48;;;;;;;9.45;4.13;;;;;;;;;;5019467;28;20498;-70
2023/05/05 01:02:14;;;;;;;4.40;3.30;;;;;;;;;;5019010;28;20049;-69
2023/05/05 01:04:39;;;;;;;10.40;3.40;;;;;;;;;;5019652;28;20041;-69
2023/05/05 01:07:19;;;;;;;5.93;3.67;;;;;;;;;;5019095;28;20494;-69
2023/05/05 01:10:01;;;;;;;4.15;3.10;;;;;;;;;;5017829;28;20482;-71
2023/05/05 01:12:54;;;;;;;4.70;3.15;;;;;;;;;;5010736;28;20060;-71
2023/05/05 01:15:33;;;;;;;5.18;3.22;;;;;;;;;;5030004;28;20099;-69
2023/05/05 01:18:19;;;;;;;5.00;3.13;;;;;;;;;;5005256;28;20073;-72
2023/05/05 01:21:02;;;;;;;3.85;2.97;;;;;;;;;;5016994;28;20049;-72
2023/05/05 01:23:56;;;;;;;5.53;3.28;;;;;;;;;;5016821;28;20064;-70
2023/05/05 01:26:34;;;;;;;3.83;3.20;;;;;;;;;;5018653;28;20049;-72
2023/05/05 01:29:37;;;;;;;4.72;3.58;;;;;;;;;;5019889;28;20144;-72
2023/05/05 01:32:09;;;;;;;6.55;3.67;;;;;;;;;;5004863;28;21015;-71
2023/05/05 01:34:40;;;;;;;5.65;3.83;;;;;;;;;;5019366;28;20056;-69
2023/05/05 01:37:21;;;;;;;8.65;3.95;;;;;;;;;;5017192;28;20059;-69
2023/05/05 01:39:51;;;;;;;4.05;3.38;;;;;;;;;;5033866;28;20095;-72
2023/05/05 01:42:18;;;;;;;7.00;3.28;;;;;;;;;;5032820;28;20548;-72
2023/05/05 01:44:46;;;;;;;5.03;3.35;;;;;;;;;;5034821;28;20045;-69
2023/05/05 01:47:14;;;;;;;4.05;3.30;;;;;;;;;;5034170;28;20049;-69
2023/05/05 01:49:42;;;;;;;4.55;3.10;;;;;;;;;;5034303;28;20591;-69
2023/05/05 01:52:10;;;;;;;7.60;3.35;;;;;;;;;;5019164;28;20049;-70
2023/05/05 01:54:37;;;;;;;5.90;3.83;;;;;;;;;;5033933;28;20120;-71
2023/05/05 01:57:04;;;;;;;5.97;3.83;;;;;;;;;;5034961;28;20065;-71
2023/05/05 01:59:31;;;;;;;5.90;4.03;;;;;;;;;;5018210;28;20049;-70
2023/05/05 02:02:00;;;;;;;7.82;3.55;;;;;;;;;;5008353;28;20487;-71
2023/05/05 02:04:28;;;;;;;8.82;3.90;;;;;;;;;;5009697;28;20052;-71
2023/05/05 02:06:55;;;;;;;4.85;3.75;;;;;;;;;;5019692;28;20049;-69
2023/05/05 02:09:24;;;;;;;6.35;4.00;;;;;;;;;;5022284;28;20385;-69
2023/05/05 02:11:50;;;;;;;8.75;3.67;;;;;;;;;;5020814;28;20144;-70
2023/05/05 02:14:18;;;;;;;10.13;3.60;;;;;;;;;;5022232;28;20045;-69
2023/05/05 02:16:44;;;;;;;5.30;4.13;;;;;;;;;;5020298;28;20076;-70
2023/05/05 02:19:11;;;;;;;6.93;4.93;;;;;;;;;;5034845;28;20089;-71
2023/05/05 02:21:37;;;;;;;10.38;4.45;;;;;;;;;;5021525;28;20577;-69
2023/05/05 02:24:05;;;;;;;12.63;5.60;;;;;;;;;;5037954;28;20075;-70
2023/05/05 02:26:36;;;;;;;9.05;5.97;;;;;;;;;;5021297;28;20099;-70
2023/05/05 02:29:06;;;;;;;14.73;6.90;;;;;;;;;;5034682;28;20050;-72
2023/05/05 02:31:37;;;;;;;11.77;6.47;;;;;;;;;;5021692;28;20107;-71
2023/05/05 02:34:06;;;;;;;12.10;5.97;;;;;;;;;;5037470;28;20588;-69
2023/05/05 02:36:38;;;;;;;11.73;5.78;;;;;;;;;;5037857;28;20113;-71
2023/05/05 02:39:11;;;;;;;8.70;5.22;;;;;;;;;;5036958;28;20049;-70
2023/05/05 02:41:38;;;;;;;7.32;4.80;;;;;;;;;;5020463;28;20049;-71
2023/05/05 02:44:11;;;;;;;6.40;4.40;;;;;;;;;;5037760;28;20061;-70
2023/05/05 02:46:37;;;;;;;5.78;4.32;;;;;;;;;;5037770;28;20402;-69
2023/05/05 02:49:03;;;;;;;6.05;4.63;;;;;;;;;;5020396;28;20050;-69
2023/05/05 02:51:29;;;;;;;7.25;3.83;;;;;;;;;;5019470;28;20054;-71
2023/05/05 02:53:57;;;;;;;5.55;3.95;;;;;;;;;;5036872;28;20041;-69
2023/05/05 02:56:39;;;;;;;5.05;3.95;;;;;;;;;;5021103;28;20049;-70
2023/05/05 02:59:39;;;;;;;4.88;4.15;;;;;;;;;;5030536;28;20110;-70
2023/05/05 03:02:16;;;;;;;5.88;4.43;;;;;;;;;;5034729;28;20045;-70
2023/05/05 03:04:47;;;;;;;7.68;4.25;;;;;;;;;;5021561;28;20045;-70
2023/05/05 03:07:32;;;;;;;6.90;4.78;;;;;;;;;;5021901;28;20128;-70
2023/05/05 03:10:18;;;;;;;7.18;4.78;;;;;;;;;;5036477;28;20061;-71
2023/05/05 03:12:51;;;;;;;7.03;4.88;;;;;;;;;;5017728;28;20084;-72
2023/05/05 03:15:30;;;;;;;9.88;4.85;;;;;;;;;;5020005;28;20049;-72
2023/05/05 03:17:58;;;;;;;8.15;5.00;;;;;;;;;;5019731;28;20050;-71
2023/05/05 03:20:24;;;;;;;6.78;4.90;;;;;;;;;;5015660;28;20606;-70
2023/05/05 03:22:51;;;;;;;6.90;5.05;;;;;;;;;;5019002;28;20041;-69
2023/05/05 03:25:17;;;;;;;8.45;5.18;;;;;;;;;;5013390;28;20091;-72
2023/05/05 03:27:42;;;;;;;7.03;5.20;;;;;;;;;;5011727;28;20049;-71
2023/05/05 03:30:11;;;;;;;6.10;5.00;;;;;;;;;;5019740;28;20049;-71
2023/05/05 03:32:44;;;;;;;13.38;5.55;;;;;;;;;;5019108;28;20599;-72
2023/05/05 03:35:10;;;;;;;7.90;5.13;;;;;;;;;;5036472;28;20111;-69
2023/05/05 03:37:36;;;;;;;7.30;5.20;;;;;;;;;;5018524;28;20065;-72
2023/05/05 03:40:02;;;;;;;7.57;5.68;;;;;;;;;;5019782;28;20050;-69
2023/05/05 03:42:29;;;;;;;10.73;5.13;;;;;;;;;;5012843;28;20075;-71
2023/05/05 03:44:55;;;;;;;7.68;4.75;;;;;;;;;;5013679;28;20069;-70
2023/05/05 03:47:26;;;;;;;7.13;5.60;;;;;;;;;;5017280;28;20096;-70
2023/05/05 03:49:53;;;;;;;25.85;12.43;;;;;;;;;;5017753;28;20045;-70
2023/05/05 03:52:18;;;;;;;18.30;13.00;;;;;;;;;;5030608;28;20045;-70
2023/05/05 03:54:44;;;;;;;12.68;8.70;;;;;;;;;;5003511;28;20064;-71
2023/05/05 03:57:10;;;;;;;9.60;5.55;;;;;;;;;;5018046;28;20076;-69
2023/05/05 03:59:35;;;;;;;8.35;5.35;;;;;;;;;;5028986;28;20065;-69
2023/05/05 04:02:01;;;;;;;7.20;5.10;;;;;;;;;;5015472;28;20060;-69
2023/05/05 04:04:26;;;;;;;6.05;4.72;;;;;;;;;;5033921;28;20107;-70
2023/05/05 04:06:52;;;;;;;5.95;5.35;;;;;;;;;;5017314;28;20088;-69
2023/05/05 04:09:18;;;;;;;10.50;5.90;;;;;;;;;;5030261;28;20049;-68
2023/05/05 04:11:43;;;;;;;6.80;5.22;;;;;;;;;;5010741;28;20491;-68
2023/05/05 04:14:10;;;;;;;9.38;5.38;;;;;;;;;;5029741;28;20116;-68
2023/05/05 04:16:35;;;;;;;8.75;5.00;;;;;;;;;;5010174;28;20514;-68
2023/05/05 04:19:01;;;;;;;9.82;5.50;;;;;;;;;;5028680;28;20042;-68
2023/05/05 04:21:27;;;;;;;6.55;4.93;;;;;;;;;;5019027;28;20033;-68
2023/05/05 04:23:52;;;;;;;15.55;5.28;;;;;;;;;;5035729;28;20056;-68
2023/05/05 04:26:19;;;;;;;7.93;5.55;;;;;;;;;;5029758;28;20045;-70
2023/05/05 04:28:45;;;;;;;11.32;5.15;;;;;;;;;;5002326;28;20095;-70
2023/05/05 04:31:11;;;;;;;7.70;5.55;;;;;;;;;;5019562;28;20707;-71
2023/05/05 04:33:39;;;;;;;8.90;5.45;;;;;;;;;;5014125;28;20485;-72
2023/05/05 04:36:05;;;;;;;13.63;6.22;;;;;;;;;;5016063;28;21280;-72
2023/05/05 04:38:31;;;;;;;8.23;4.85;;;;;;;;;;5028721;28;20050;-72
2023/05/05 04:40:58;;;;;;;7.85;5.13;;;;;;;;;;5030553;28;20037;-72
2023/05/05 04:43:25;;;;;;;7.30;4.97;;;;;;;;;;5011502;28;20503;-73
2023/05/05 04:45:54;;;;;;;8.20;5.22;;;;;;;;;;5009428;28;20562;-70
2023/05/05 04:48:22;;;;;;;8.30;5.10;;;;;;;;;;5016295;28;20138;-72
2023/05/05 04:50:47;;;;;;;7.28;5.68;;;;;;;;;;5010584;28;20045;-72
2023/05/05 04:53:13;;;;;;;6.55;4.90;;;;;;;;;;5012417;28;20049;-72
2023/05/05 04:55:39;;;;;;;14.82;6.00;;;;;;;;;;5000962;28;20044;-72
2023/05/05 04:58:04;;;;;;;8.95;5.15;;;;;;;;;;5009717;28;20208;-72
2023/05/05 05:00:30;;;;;;;7.63;4.78;;;;;;;;;;5013845;28;20041;-73
2023/05/05 05:02:56;;;;;;;9.82;5.55;;;;;;;;;;5015709;28;20110;-73
2023/05/05 05:05:22;;;;;;;11.10;5.28;;;;;;;;;;5033810;28;20053;-71
2023/05/05 05:07:47;;;;;;;7.82;4.95;;;;;;;;;;5032162;28;20050;-73
2023/05/05 05:10:13;;;;;;;10.52;5.65;;;;;;;;;;5014300;28;20049;-68
2023/05/05 05:12:39;;;;;;;6.45;4.50;;;;;;;;;;5011469;28;20053;-70
2023/05/05 05:15:05;;;;;;;9.55;4.78;;;;;;;;;;5014970;28;20041;-72
2023/05/05 05:17:31;;;;;;;6.53;4.25;;;;;;;;;;5015833;28;20107;-69
2023/05/05 05:20:00;;;;;;;10.02;4.60;;;;;;;;;;5014357;28;20045;-72
2023/05/05 05:22:26;;;;;;;9.85;5.57;;;;;;;;;;5014157;28;20037;-69
2023/05/05 05:24:52;;;;;;;9.38;4.60;;;;;;;;;;5032560;28;20042;-72
2023/05/05 05:27:18;;;;;;;9.80;4.82;;;;;;;;;;5012324;28;20049;-71
2023/05/05 05:29:46;;;;;;;5.90;4.40;;;;;;;;;;5014597;28;20080;-72
2023/05/05 05:32:11;;;;;;;6.05;4.30;;;;;;;;;;5010892;28;20054;-70
2023/05/05 05:34:37;;;;;;;12.07;4.50;;;;;;;;;;5012962;28;20034;-73
2023/05/05 05:37:06;;;;;;;5.13;3.95;;;;;;;;;;5029308;28;20052;-69
2023/05/05 05:39:31;;;;;;;6.10;3.70;;;;;;;;;;5028083;28;20045;-69
2023/05/05 05:41:57;;;;;;;5.10;3.50;;;;;;;;;;5032998;28;20041;-69
2023/05/05 05:44:23;;;;;;;9.40;5.25;;;;;;;;;;5034469;28;20491;-70
2023/05/05 05:46:48;;;;;;;5.80;3.67;;;;;;;;;;5038582;28;20056;-71
2023/05/05 05:49:15;;;;;;;6.68;4.43;;;;;;;;;;5019547;28;20052;-71
2023/05/05 05:51:41;;;;;;;8.23;3.85;;;;;;;;;;5020954;28;20041;-70
2023/05/05 05:54:06;;;;;;;5.53;3.45;;;;;;;;;;5021140;28;20435;-70
2023/05/05 05:56:32;;;;;;;5.38;3.70;;;;;;;;;;5036842;28;20620;-69
2023/05/05 05:58:57;;;;;;;6.50;3.30;;;;;;;;;;5038729;28;20080;-71
2023/05/05 06:01:26;;;;;;;7.32;3.75;;;;;;;;;;5038488;28;20056;-70
2023/05/05 06:03:52;;;;;;;5.82;3.47;;;;;;;;;;5018985;28;20056;-71
2023/05/05 06:06:18;;;;;;;4.05;3.63;;;;;;;;;;5020267;28;20072;-70
2023/05/05 06:08:43;;;;;;;4.15;3.53;;;;;;;;;;5021234;28;20439;-72
2023/05/05 06:11:10;;;;;;;3.92;3.22;;;;;;;;;;5038205;28;20410;-71
2023/05/05 06:13:35;;;;;;;6.22;3.60;;;;;;;;;;5020775;28;20060;-69
2023/05/05 06:16:02;;;;;;;7.22;3.47;;;;;;;;;;5034498;28;20107;-72
2023/05/05 06:18:27;;;;;;;4.13;3.50;;;;;;;;;;5018014;28;21224;-69
2023/05/05 06:20:53;;;;;;;5.70;3.42;;;;;;;;;;5018018;28;20122;-69
2023/05/05 06:23:21;;;;;;;6.40;3.60;;;;;;;;;;5037946;28;20195;-72
2023/05/05 06:25:54;;;;;;;4.25;3.63;;;;;;;;;;5037019;28;20049;-73
2023/05/05 06:28:20;;;;;;;4.55;3.05;;;;;;;;;;5013717;28;21111;-71
2023/05/05 06:30:45;;;;;;;3.50;3.10;;;;;;;;;;5015148;28;20052;-71
2023/05/05 06:33:10;;;;;;;3.67;3.20;;;;;;;;;;5020416;28;20064;-72
2023/05/05 06:35:36;;;;;;;7.25;3.47;;;;;;;;;;5015435;28;20053;-74
2023/05/05 06:38:01;;;;;;;5.03;3.90;;;;;;;;;;5037992;28;20580;-71
2023/05/05 06:40:27;;;;;;;4.88;3.67;;;;;;;;;;5016959;28;20053;-73
2023/05/05 06:42:52;;;;;;;8.40;4.10;;;;;;;;;;5022728;28;20450;-71
2023/05/05 06:45:22;;;;;;;4.05;3.65;;;;;;;;;;5021242;28;20055;-72
2023/05/05 06:47:48;;;;;;;9.77;4.22;;;;;;;;;;5021202;28;20239;-70
2023/05/05 06:50:13;;;;;;;7.63;4.43;;;;;;;;;;5014529;28;20849;-72
2023/05/05 06:52:40;;;;;;;6.00;3.60;;;;;;;;;;5021912;28;20127;-74
2023/05/05 06:55:06;;;;;;;7.10;4.07;;;;;;;;;;5021292;28;20120;-71
2023/05/05 06:57:31;;;;;;;10.02;3.83;;;;;;;;;;5022258;28;20052;-71
2023/05/05 06:59:57;;;;;;;5.63;3.60;;;;;;;;;;5020541;28;20679;-70
2023/05/05 07:02:22;;;;;;;5.47;3.13;;;;;;;;;;5021186;28;20045;-74
2023/05/05 07:04:47;;;;;;;7.88;3.92;;;;;;;;;;5021773;28;20061;-74
2023/05/05 07:07:13;;;;;;;10.93;3.63;;;;;;;;;;5022198;28;20054;-70
2023/05/05 07:09:40;;;;;;;7.97;4.05;;;;;;;;;;5021615;28;20049;-72
2023/05/05 07:12:05;;;;;;;7.88;3.72;;;;;;;;;;5021747;28;20053;-71
2023/05/05 07:14:31;;;;;;;5.75;3.90;;;;;;;;;;5020715;28;20822;-72
2023/05/05 07:16:56;;;;;;;7.28;3.70;;;;;;;;;;5019520;28;20049;-72
2023/05/05 07:19:22;;;;;;;6.32;3.42;;;;;;;;;;5021511;28;20049;-71
2023/05/05 07:21:47;;;;;;;7.13;3.85;;;;;;;;;;5020821;28;20073;-71
2023/05/05 07:24:13;;;;;;;4.75;3.33;;;;;;;;;;5020654;28;20091;-71
2023/05/05 07:26:38;;;;;;;3.78;3.10;;;;;;;;;;5021747;28;20072;-74
2023/05/05 07:29:05;;;;;;;4.55;3.25;;;;;;;;;;5036768;28;20621;-71
2023/05/05 07:31:31;;;;;;;8.57;3.47;;;;;;;;;;5021413;28;20300;-73
2023/05/05 07:33:57;;;;;;;6.30;3.60;;;;;;;;;;5020525;28;21068;-71
2023/05/05 07:36:22;;;;;;;6.35;2.90;;;;;;;;;;5019677;28;20045;-71
2023/05/05 07:38:47;;;;;;;10.88;3.70;;;;;;;;;;5021623;28;20045;-70
2023/05/05 07:41:13;;;;;;;6.07;3.72;;;;;;;;;;5021395;28;20049;-74
2023/05/05 07:43:41;;;;;;;6.90;3.50;;;;;;;;;;5020302;28;20607;-71
2023/05/05 07:46:07;;;;;;;9.05;3.33;;;;;;;;;;5020218;28;20053;-72
2023/05/05 07:48:33;;;;;;;6.65;3.30;;;;;;;;;;5021107;28;20060;-72
2023/05/05 07:50:58;;;;;;;5.30;3.42;;;;;;;;;;5021167;28;20037;-72
2023/05/05 07:53:23;;;;;;;4.70;2.78;;;;;;;;;;5020606;28;20598;-75
2023/05/05 07:55:49;;;;;;;3.70;2.38;;;;;;;;;;5020393;28;21139;-70
2023/05/05 07:58:15;;;;;;;4.70;2.10;;;;;;;;;;5019015;28;20060;-74
2023/05/05 08:00:41;;;;;;;3.70;2.33;;;;;;;;;;5020787;28;20072;-71
2023/05/05 08:03:07;;;;;;;7.85;2.63;;;;;;;;;;5020757;28;20045;-71
2023/05/05 08:05:32;;;;;;;3.13;2.63;;;;;;;;;;5020205;28;20049;-70
2023/05/05 08:07:58;;;;;;;3.25;2.28;;;;;;;;;;5017990;28;20048;-70
2023/05/05 08:10:23;;;;;;;2.45;2.17;;;;;;;;;;5020443;28;20410;-73
2023/05/05 08:12:49;;;;;;;4.32;2.63;;;;;;;;;;5010737;28;20052;-71
2023/05/05 08:15:14;;;;;;;2.53;2.33;;;;;;;;;;5019664;28;20053;-70
2023/05/05 08:17:47;;;;;;;6.32;2.25;;;;;;;;;;5019128;28;20486;-70
2023/05/05 08:20:13;;;;;;;5.78;2.00;;;;;;;;;;5020040;28;20422;-70
2023/05/05 08:22:40;;;;;;;6.53;2.42;;;;;;;;;;5020285;28;20049;-70
2023/05/05 08:25:06;;;;;;;2.10;1.90;;;;;;;;;;5020607;28;20083;-70
2023/05/05 08:27:34;;;;;;;4.28;2.25;;;;;;;;;;5020652;28;20131;-71
2023/05/05 08:30:00;;;;;;;6.70;2.53;;;;;;;;;;5018923;28;20049;-72
2023/05/05 08:32:25;;;;;;;4.90;2.15;;;;;;;;;;5012532;28;20061;-73
2023/05/05 08:34:51;;;;;;;3.80;2.92;;;;;;;;;;5020706;28;20045;-72
2023/05/05 08:37:17;;;;;;;3.20;2.70;;;;;;;;;;5020678;28;20498;-72
2023/05/05 08:39:43;;;;;;;2.65;2.42;;;;;;;;;;5019855;28;20064;-71
2023/05/05 08:42:09;;;;;;;3.67;2.45;;;;;;;;;;5019600;28;20068;-71
2023/05/05 08:44:34;;;;;;;5.65;2.10;;;;;;;;;;5020129;28;20060;-71
2023/05/05 08:47:00;;;;;;;7.20;2.10;;;;;;;;;;5014866;28;20042;-70
2023/05/05 08:49:31;;;;;;;4.82;2.40;;;;;;;;;;5018008;28;20067;-73
2023/05/05 08:52:00;;;;;;;2.80;1.80;;;;;;;;;;5018267;28;20142;-69
2023/05/05 08:54:29;;;;;;;1.88;1.70;;;;;;;;;;5018878;28;20076;-72
2023/05/05 08:57:00;;;;;;;3.03;1.98;;;;;;;;;;5017189;28;20056;-69
2023/05/05 08:59:29;;;;;;;4.00;2.10;;;;;;;;;;5017904;28;20056;-70
2023/05/05 09:01:56;;;;;;;3.58;2.10;;;;;;;;;;5011103;28;20050;-71
2023/05/05 09:04:21;;;;;;;6.25;2.10;;;;;;;;;;5018143;28;20052;-73
2023/05/05 09:06:47;;;;;;;2.33;1.67;;;;;;;;;;5019656;28;20099;-71
2023/05/05 09:09:13;;;;;;;4.03;2.20;;;;;;;;;;5018522;28;20864;-70
2023/05/05 09:11:40;;;;;;;2.22;1.95;;;;;;;;;;5015379;28;20057;-72
2023/05/05 09:14:06;;;;;;;6.57;2.25;;;;;;;;;;5016423;28;20904;-71
2023/05/05 09:16:31;;;;;;;3.17;2.00;;;;;;;;;;5018092;28;20100;-70
2023/05/05 09:19:01;;;;;;;2.08;1.85;;;;;;;;;;5019351;28;20046;-69
2023/05/05 09:21:26;;;;;;;2.70;2.10;;;;;;;;;;5023827;28;20049;-73
2023/05/05 09:24:08;;;;;;;6.13;2.53;;;;;;;;;;5021129;28;20057;-71
2023/05/05 09:26:36;;;;;;;3.47;2.20;;;;;;;;;;5014280;28;20048;-69
2023/05/05 09:29:03;;;;;;;10.77;2.60;;;;;;;;;;5021269;28;20049;-71
2023/05/05 09:31:33;;;;;;;5.15;2.42;;;;;;;;;;5021862;28;20049;-71
2023/05/05 09:34:00;;;;;;;4.57;2.50;;;;;;;;;;5012616;28;20046;-69
2023/05/05 09:36:46;;;;;;;3.75;2.40;;;;;;;;;;5021458;28;20131;-70
2023/05/05 09:39:12;;;;;;;4.03;2.50;;;;;;;;;;5017815;28;20451;-72
2023/05/05 09:41:39;;;;;;;5.38;2.20;;;;;;;;;;5022881;28;20107;-70
2023/05/05 09:44:05;;;;;;;4.88;2.30;;;;;;;;;;5023395;28;20056;-74
2023/05/05 09:46:31;;;;;;;2.38;2.03;;;;;;;;;;5022959;28;20830;-72
2023/05/05 09:49:14;;;;;;;2.47;2.13;;;;;;;;;;5015451;28;20077;-71
2023/05/05 09:51:40;;;;;;;3.38;2.10;;;;;;;;;;5022428;28;20268;-77
2023/05/05 09:54:05;;;;;;;7.05;2.22;;;;;;;;;;5023134;28;21035;-72
2023/05/05 09:56:41;;;;;;;2.53;2.33;;;;;;;;;;5011749;28;20046;-70
2023/05/05 09:59:10;;;;;;;2.30;1.90;;;;;;;;;;5022382;28;20090;-69
2023/05/05 10:01:37;;;;;;;5.05;2.20;;;;;;;;;;5017445;28;20045;-72
2023/05/05 10:04:02;;;;;;;5.65;2.35;;;;;;;;;;5022941;28;20132;-70
2023/05/05 10:06:46;;;;;;;6.05;2.30;;;;;;;;;;5023389;28;20180;-69
2023/05/05 10:09:12;;;;;;;2.55;2.25;;;;;;;;;;5015414;28;20077;-70
2023/05/05 10:11:43;;;;;;;2.78;2.28;;;;;;;;;;5022219;28;20053;-70
2023/05/05 10:14:13;;;;;;;3.67;2.13;;;;;;;;;;5023116;28;20041;-69
2023/05/05 10:16:43;;;;;;;2.92;2.15;;;;;;;;;;5023176;28;20192;-70
2023/05/05 10:19:13;;;;;;;4.40;2.30;;;;;;;;;;5022733;28;20099;-72
2023/05/05 10:21:39;;;;;;;5.55;2.22;;;;;;;;;;5022088;28;20042;-69
2023/05/05 10:24:33;;;;;;;3.15;2.47;;;;;;;;;;5022263;28;20124;-74
2023/05/05 10:27:01;;;;;;;2.80;2.25;;;;;;;;;;5019553;28;20048;-70
2023/05/05 10:29:44;;;;;;;4.65;2.08;;;;;;;;;;5019522;28;20051;-71
2023/05/05 10:33:01;;;;;;;5.05;2.28;;;;;;;;;;5023193;28;20562;-71
2023/05/05 10:35:30;;;;;;;5.22;2.10;;;;;;;;;;5009501;28;20057;-75
2023/05/05 10:37:56;;;;;;;5.80;2.25;;;;;;;;;;5022222;28;20096;-72
2023/05/05 10:40:23;;;;;;;3.65;2.53;;;;;;;;;;5022764;28;20072;-71
2023/05/05 10:42:49;;;;;;;4.13;2.10;;;;;;;;;;5021292;28;20045;-74
2023/05/05 10:45:15;;;;;;;5.18;2.22;;;;;;;;;;5022135;28;20053;-74
2023/05/05 10:47:43;;;;;;;6.25;2.28;;;;;;;;;;5020068;28;20063;-73
2023/05/05 10:50:46;;;;;;;4.28;2.55;;;;;;;;;;5013575;28;20163;-70
2023/05/05 10:53:34;;;;;;;5.13;2.45;;;;;;;;;;4993864;28;20410;-75
2023/05/05 10:56:20;;;;;;;5.20;2.13;;;;;;;;;;5013370;28;20094;-72
2023/05/05 10:58:45;;;;;;;4.55;2.30;;;;;;;;;;5021885;28;20053;-69
2023/05/05 11:01:11;;;;;;;4.00;2.25;;;;;;;;;;5021983;28;20132;-70
2023/05/05 11:03:36;;;;;;;4.22;2.55;;;;;;;;;;5020090;28;20050;-71
2023/05/05 11:06:02;;;;;;;8.02;3.25;;;;;;;;;;5021923;28;20052;-72
2023/05/05 11:08:27;;;;;;;9.32;2.70;;;;;;;;;;5017681;28;20049;-73
2023/05/05 11:10:53;;;;;;;4.70;2.65;;;;;;;;;;5014758;28;20136;-71
2023/05/05 11:13:19;;;;;;;3.58;2.63;;;;;;;;;;5015606;28;20046;-71
2023/05/05 11:15:46;;;;;;;6.18;2.58;;;;;;;;;;5017953;28;20108;-71
2023/05/05 11:18:37;;;;;;;6.93;3.13;;;;;;;;;;5020100;28;20084;-72
2023/05/05 11:21:14;;;;;;;5.30;2.90;;;;;;;;;;5020103;28;20733;-72
2023/05/05 11:23:46;;;;;;;4.63;2.20;;;;;;;;;;5020306;28;20053;-72
2023/05/05 11:26:13;;;;;;;4.35;2.33;;;;;;;;;;5019686;28;20056;-72
2023/05/05 11:28:54;;;;;;;5.75;2.63;;;;;;;;;;5021621;28;20138;-72
2023/05/05 11:31:20;;;;;;;4.32;2.28;;;;;;;;;;5018774;28;20044;-71
2023/05/05 11:33:46;;;;;;;3.90;2.50;;;;;;;;;;5020242;28;20262;-71
2023/05/05 11:36:15;;;;;;;3.50;2.40;;;;;;;;;;5015370;28;20053;-71
2023/05/05 11:39:18;;;;;;;2.88;2.58;;;;;;;;;;5021045;28;20046;-72
2023/05/05 11:42:16;;;;;;;7.53;2.17;;;;;;;;;;5019454;28;20632;-72
2023/05/05 11:44:42;;;;;;;2.83;2.53;;;;;;;;;;5021266;28;20049;-72
2023/05/05 11:47:07;;;;;;;4.40;2.50;;;;;;;;;;5021122;28;20056;-72
2023/05/05 11:49:33;;;;;;;4.55;2.58;;;;;;;;;;5020497;28;20179;-72
2023/05/05 11:52:09;;;;;;;2.10;1.90;;;;;;;;;;5020706;28;20053;-72
2023/05/05 11:54:46;;;;;;;2.70;2.33;;;;;;;;;;5019165;28;20624;-73
2023/05/05 11:57:13;;;;;;;3.33;2.33;;;;;;;;;;5020939;28;20049;-73
2023/05/05 11:59:52;;;;;;;5.55;2.53;;;;;;;;;;5013046;28;20045;-72
2023/05/05 12:02:19;;;;;;;2.92;2.20;;;;;;;;;;5017306;28;20126;-73
2023/05/05 12:04:45;;;;;;;7.05;3.15;;;;;;;;;;5018165;28;20055;-71
2023/05/05 12:07:15;;;;;;;2.90;2.50;;;;;;;;;;5017443;28;20413;-72
2023/05/05 12:09:45;;;;;;;4.05;3.00;;;;;;;;;;5011944;28;20067;-73
2023/05/05 12:12:12;;;;;;;5.35;3.13;;;;;;;;;;5018268;28;20049;-71
2023/05/05 12:14:51;;;;;;;5.97;2.97;;;;;;;;;;5018241;28;20049;-72
2023/05/05 12:17:18;;;;;;;5.13;2.63;;;;;;;;;;5019241;28;20056;-71
2023/05/05 12:19:50;;;;;;;5.65;2.67;;;;;;;;;;5018621;28;20490;-72
2023/05/05 12:22:20;;;;;;;5.03;2.70;;;;;;;;;;5015321;28;20065;-74
2023/05/05 12:24:55;;;;;;;4.28;3.05;;;;;;;;;;5018631;28;20470;-75
2023/05/05 12:27:21;;;;;;;5.20;2.70;;;;;;;;;;5018472;28;20045;-71
2023/05/05 12:29:46;;;;;;;6.10;3.05;;;;;;;;;;5018123;28;20049;-70
2023/05/05 12:32:20;;;;;;;4.10;3.03;;;;;;;;;;5011397;28;20525;-69
2023/05/05 12:34:46;;;;;;;3.38;2.80;;;;;;;;;;5010934;28;20050;-74
2023/05/05 12:37:11;;;;;;;3.97;3.10;;;;;;;;;;5016865;28;20049;-70
2023/05/05 12:39:37;;;;;;;6.88;3.65;;;;;;;;;;5018274;28;20049;-74
2023/05/05 12:42:03;;;;;;;6.90;3.10;;;;;;;;;;5018202;28;20525;-72
2023/05/05 12:44:34;;;;;;;5.68;3.50;;;;;;;;;;5014800;28;21055;-72
2023/05/05 12:47:00;;;;;;;6.07;3.60;;;;;;;;;;5016473;28;20045;-72
2023/05/05 12:49:26;;;;;;;12.85;3.70;;;;;;;;;;5015034;28;20528;-73
2023/05/05 12:51:53;;;;;;;4.25;3.22;;;;;;;;;;5017254;28;20060;-70
2023/05/05 12:54:18;;;;;;;5.10;3.30;;;;;;;;;;5010184;28;20053;-73
2023/05/05 12:56:45;;;;;;;6.10;3.20;;;;;;;;;;5017694;28;20406;-73
2023/05/05 12:59:20;;;;;;;6.03;3.38;;;;;;;;;;5033301;28;20041;-70
2023/05/05 13:01:49;;;;;;;8.30;3.10;;;;;;;;;;5033229;28;20042;-71
2023/05/05 13:04:14;;;;;;;4.82;3.08;;;;;;;;;;5012994;28;20494;-71
2023/05/05 13:06:45;;;;;;;4.63;3.20;;;;;;;;;;5009056;28;20045;-72
2023/05/05 13:09:29;;;;;;;6.00;2.47;;;;;;;;;;5018818;28;20526;-74
2023/05/05 13:11:55;;;;;;;3.58;2.55;;;;;;;;;;5017197;28;20128;-73
2023/05/05 13:14:21;;;;;;;3.65;2.78;;;;;;;;;;5016294;28;20056;-71
2023/05/05 13:16:47;;;;;;;3.92;2.88;;;;;;;;;;5017425;28;20045;-72
2023/05/05 13:19:13;;;;;;;3.58;2.78;;;;;;;;;;5010153;28;20814;-73
2023/05/05 13:21:38;;;;;;;3.83;2.50;;;;;;;;;;5015071;28;20665;-72
2023/05/05 13:24:04;;;;;;;3.25;2.70;;;;;;;;;;5009065;28;20137;-71
2023/05/05 13:26:29;;;;;;;4.90;2.80;;;;;;;;;;5013969;28;20173;-71
2023/05/05 13:28:55;;;;;;;6.57;3.05;;;;;;;;;;5013206;28;20069;-72
2023/05/05 13:31:20;;;;;;;4.38;2.47;;;;;;;;;;5019636;28;20049;-72
2023/05/05 13:33:46;;;;;;;10.15;2.70;;;;;;;;;;5011152;28;20041;-72
2023/05/05 13:36:11;;;;;;;3.60;2.85;;;;;;;;;;5019610;28;20073;-73
2023/05/05 13:38:37;;;;;;;8.13;3.13;;;;;;;;;;5013773;28;20037;-72
2023/05/05 13:41:02;;;;;;;9.25;2.55;;;;;;;;;;5010875;28;20402;-73
2023/05/05 13:43:28;;;;;;;4.38;2.78;;;;;;;;;;5011910;28;20045;-73
2023/05/05 13:45:53;;;;;;;5.10;2.75;;;;;;;;;;5014039;28;20132;-72
2023/05/05 13:48:19;;;;;;;4.22;2.58;;;;;;;;;;5015245;28;20069;-71
2023/05/05 13:50:46;;;;;;;4.65;2.83;;;;;;;;;;5010678;28;20080;-72
2023/05/05 13:53:11;;;;;;;4.07;3.17;;;;;;;;;;5012769;28;20096;-73
2023/05/05 13:55:36;;;;;;;3.45;2.90;;;;;;;;;;5014218;28;20073;-71
2023/05/05 13:58:02;;;;;;;6.38;2.70;;;;;;;;;;5011384;28;20050;-72
2023/05/05 14:00:27;;;;;;;10.10;2.78;;;;;;;;;;5011411;28;20080;-70
2023/05/05 14:02:53;;;;;;;6.28;2.42;;;;;;;;;;5009228;28;20055;-73
2023/05/05 14:05:19;;;;;;;4.68;2.53;;;;;;;;;;5017530;28;20079;-72
2023/05/05 14:07:48;;;;;;;2.58;2.08;;;;;;;;;;5017555;28;20140;-72
2023/05/05 14:10:13;;;;;;;3.10;2.10;;;;;;;;;;5020851;28;20056;-71
2023/05/05 14:12:39;;;;;;;3.40;2.78;;;;;;;;;;5020198;28;20049;-71
2023/05/05 14:15:05;;;;;;;3.47;2.50;;;;;;;;;;5023024;28;20167;-71
2023/05/05 14:17:31;;;;;;;8.75;2.70;;;;;;;;;;5022619;28;20041;-74
2023/05/05 14:19:57;;;;;;;4.20;2.47;;;;;;;;;;5022323;28;20139;-73
2023/05/05 14:22:23;;;;;;;7.75;2.40;;;;;;;;;;5021537;28;20041;-72
2023/05/05 14:24:48;;;;;;;5.97;2.20;;;;;;;;;;5022482;28;20508;-71
2023/05/05 14:27:13;;;;;;;7.60;2.30;;;;;;;;;;5022951;28;20053;-73
2023/05/05 14:29:39;;;;;;;4.45;2.58;;;;;;;;;;5020787;28;20037;-72
2023/05/05 14:32:04;;;;;;;2.95;2.10;;;;;;;;;;5022209;28;20597;-73
2023/05/05 14:34:30;;;;;;;6.07;2.10;;;;;;;;;;5033699;28;20041;-72
2023/05/05 14:36:56;;;;;;;9.05;2.47;;;;;;;;;;5023445;28;20502;-73
2023/05/05 14:39:21;;;;;;;2.58;2.38;;;;;;;;;;5016267;28;20051;-72
2023/05/05 14:41:47;;;;;;;4.05;2.42;;;;;;;;;;5023065;28;20041;-74
2023/05/05 14:44:12;;;;;;;4.50;2.25;;;;;;;;;;5021288;28;20174;-73
2023/05/05 14:46:38;;;;;;;6.53;2.70;;;;;;;;;;5022355;28;20057;-72
2023/05/05 14:49:03;;;;;;;4.25;2.40;;;;;;;;;;5016751;28;20851;-72